Time;durP1;ratioP1;P1;durP2;ratioP2;P2;SDS_P1;SDS_P2;PMS_P1;PMS_P2;Temp;Humidity;BMP_temperature;BMP_pressure;BME280_temperature;BME280_humidity;BME280_pressure;Samples;Min_cycle;Max_cycle;Signal;HPM_P1;HPM_P2
2022/05/29 00:00:53;;;;;;;9.40;6.22;;;13.30;99.90;;;;;;5057548;28;20025;-59
2022/05/29 00:03:19;;;;;;;8.57;5.85;;;13.30;99.90;;;;;;5057520;28;20390;-59
2022/05/29 00:05:47;;;;;;;8.60;5.95;;;13.30;99.90;;;;;;5057594;28;20029;-59
2022/05/29 00:08:20;;;;;;;9.23;6.05;;;13.30;99.90;;;;;;5057712;28;20478;-59
2022/05/29 00:10:46;;;;;;;10.55;6.07;;;13.20;99.90;;;;;;5057303;28;20033;-59
2022/05/29 00:13:12;;;;;;;20.27;6.13;;;13.30;99.90;;;;;;5057626;28;20064;-59
2022/05/29 00:15:40;;;;;;;7.10;5.63;;;13.30;99.90;;;;;;5057243;28;20049;-59
2022/05/29 00:18:07;;;;;;;7.65;5.78;;;13.30;99.90;;;;;;5057181;28;20339;-59
2022/05/29 00:20:33;;;;;;;10.52;6.50;;;13.20;99.90;;;;;;5057392;28;20032;-59
2022/05/29 00:22:59;;;;;;;9.88;5.90;;;13.10;99.90;;;;;;5057299;28;20021;-59
2022/05/29 00:25:26;;;;;;;9.75;6.20;;;13.20;99.90;;;;;;5057179;28;20158;-59
2022/05/29 00:27:52;;;;;;;10.57;5.60;;;13.10;99.90;;;;;;5064972;28;20035;-59
2022/05/29 00:30:18;;;;;;;10.95;5.60;;;13.10;99.90;;;;;;5077102;28;20031;-59
2022/05/29 00:32:44;;;;;;;12.40;5.68;;;13.20;99.90;;;;;;5077162;28;20155;-59
2022/05/29 00:35:10;;;;;;;8.20;5.22;;;13.10;99.90;;;;;;5077313;28;20557;-59
2022/05/29 00:37:39;;;;;;;9.48;5.18;;;13.10;99.90;;;;;;5077081;28;20028;-59
2022/05/29 00:40:41;;;;;;;11.15;5.22;;;13.20;99.90;;;;;;5076863;28;20029;-59
2022/05/29 00:43:07;;;;;;;5.78;4.00;;;13.30;99.90;;;;;;5077016;28;20036;-59
2022/05/29 00:45:42;;;;;;;7.57;4.43;;;13.40;99.90;;;;;;5076796;28;20020;-59
2022/05/29 00:48:12;;;;;;;6.78;4.22;;;13.30;99.90;;;;;;5076439;28;20076;-59
2022/05/29 00:50:38;;;;;;;13.02;4.43;;;13.30;99.90;;;;;;5076867;28;20088;-59
2022/05/29 00:53:04;;;;;;;6.60;3.63;;;13.20;99.90;;;;;;5076694;28;20115;-59
2022/05/29 00:55:30;;;;;;;8.57;4.18;;;13.20;99.90;;;;;;5059595;28;20024;-59
2022/05/29 00:58:02;;;;;;;10.02;4.05;;;13.20;99.90;;;;;;5056735;28;20023;-59
2022/05/29 01:00:30;;;;;;;7.40;3.67;;;13.20;99.90;;;;;;5056434;28;20538;-59
2022/05/29 01:03:00;;;;;;;12.40;3.90;;;13.20;99.90;;;;;;5056611;28;20037;-59
2022/05/29 01:05:29;;;;;;;6.67;3.93;;;13.20;99.90;;;;;;5056586;28;20024;-59
2022/05/29 01:08:08;;;;;;;8.43;4.32;;;13.20;99.90;;;;;;5056329;28;20297;-59
2022/05/29 01:10:50;;;;;;;10.38;4.57;;;13.10;99.90;;;;;;5056479;28;20037;-59
2022/05/29 01:13:52;;;;;;;4.38;3.80;;;13.10;99.90;;;;;;5056389;28;20068;-59
2022/05/29 01:16:56;;;;;;;3.95;3.47;;;13.00;99.90;;;;;;5056123;28;20124;-59
2022/05/29 01:19:25;;;;;;;6.63;4.13;;;13.10;99.90;;;;;;5056336;28;20509;-59
2022/05/29 01:22:41;;;;;;;6.80;4.00;;;13.20;99.90;;;;;;5055944;28;20044;-59
2022/05/29 01:25:19;;;;;;;6.45;3.72;;;13.10;99.90;;;;;;5022372;28;20037;-59
2022/05/29 01:28:14;;;;;;;6.75;3.92;;;13.10;99.90;;;;;;5062976;28;20028;-59
2022/05/29 01:30:47;;;;;;;5.45;3.70;;;13.10;99.90;;;;;;5076091;28;20032;-59
2022/05/29 01:33:16;;;;;;;6.07;4.07;;;13.00;99.90;;;;;;5076265;28;20047;-59
2022/05/29 01:35:51;;;;;;;10.65;4.45;;;13.00;99.90;;;;;;5075678;28;20028;-60
2022/05/29 01:38:33;;;;;;;10.63;5.00;;;13.10;99.90;;;;;;5076004;28;20025;-59
2022/05/29 01:41:07;;;;;;;14.40;5.50;;;13.00;99.90;;;;;;5075842;28;20113;-59
2022/05/29 01:43:53;;;;;;;11.75;5.57;;;13.00;99.90;;;;;;5075665;28;20020;-59
2022/05/29 01:46:31;;;;;;;16.83;6.95;;;13.10;99.90;;;;;;5075803;28;20394;-59
2022/05/29 01:49:37;;;;;;;11.52;6.38;;;13.10;99.90;;;;;;5075644;28;20032;-59
2022/05/29 01:52:15;;;;;;;11.48;5.47;;;13.00;99.90;;;;;;4974405;28;20173;-60
2022/05/29 01:55:04;;;;;;;12.55;6.20;;;13.00;99.90;;;;;;4974317;28;20066;-60
2022/05/29 01:57:36;;;;;;;14.88;6.28;;;12.90;99.90;;;;;;4974257;28;20362;-59
2022/05/29 02:00:02;;;;;;;10.30;6.22;;;12.90;99.90;;;;;;4973662;28;20039;-59
2022/05/29 02:02:43;;;;;;;12.95;5.40;;;12.80;99.90;;;;;;4974212;28;20030;-59
2022/05/29 02:05:14;;;;;;;15.13;5.30;;;12.80;99.90;;;;;;4974043;28;20043;-59
2022/05/29 02:07:50;;;;;;;9.75;5.68;;;12.80;99.90;;;;;;4974244;28;20110;-59
2022/05/29 02:10:43;;;;;;;11.85;5.63;;;12.90;99.90;;;;;;4974212;28;20038;-59
2022/05/29 02:13:39;;;;;;;15.70;5.95;;;12.90;99.90;;;;;;4974141;28;20038;-59
2022/05/29 02:16:14;;;;;;;12.05;5.82;;;12.90;99.90;;;;;;4969339;28;20101;-59
2022/05/29 02:18:48;;;;;;;14.02;6.25;;;12.90;99.90;;;;;;4973735;28;20078;-59
2022/05/29 02:21:26;;;;;;;11.43;4.75;;;12.80;99.90;;;;;;4973881;28;20030;-60
2022/05/29 02:23:55;;;;;;;9.93;4.32;;;12.80;99.90;;;;;;4973998;28;20038;-60
2022/05/29 02:26:27;;;;;;;8.07;4.20;;;12.80;99.90;;;;;;5040913;28;20040;-60
2022/05/29 02:29:06;;;;;;;6.40;3.97;;;12.80;99.90;;;;;;5074871;28;20381;-59
2022/05/29 02:31:47;;;;;;;6.57;3.88;;;12.80;99.90;;;;;;5074791;28;20095;-60
2022/05/29 02:34:24;;;;;;;10.02;4.90;;;12.70;99.90;;;;;;5075041;28;20029;-59
2022/05/29 02:37:13;;;;;;;9.18;3.92;;;12.80;99.90;;;;;;5074667;28;20121;-59
2022/05/29 02:39:46;;;;;;;7.03;3.97;;;12.80;99.90;;;;;;5074729;28;20111;-59
2022/05/29 02:42:51;;;;;;;8.80;4.22;;;12.70;99.90;;;;;;5074616;28;20020;-59
2022/05/29 02:45:23;;;;;;;7.60;3.75;;;12.60;99.90;;;;;;5074750;28;20033;-59
2022/05/29 02:48:00;;;;;;;8.18;4.60;;;12.50;99.90;;;;;;5074455;28;20033;-59
2022/05/29 02:50:32;;;;;;;8.30;4.40;;;12.60;99.90;;;;;;5074720;28;20035;-60
2022/05/29 02:53:09;;;;;;;10.98;5.15;;;12.70;99.90;;;;;;5074677;28;20029;-59
2022/05/29 02:55:35;;;;;;;7.63;4.75;;;12.70;99.90;;;;;;5056613;28;20098;-60
2022/05/29 02:58:08;;;;;;;9.65;4.65;;;12.70;99.90;;;;;;5054656;28;20352;-60
2022/05/29 03:00:49;;;;;;;7.03;4.72;;;12.70;99.90;;;;;;5054428;28;20029;-59
2022/05/29 03:03:26;;;;;;;7.80;5.18;;;12.70;99.90;;;;;;5054572;28;20029;-59
2022/05/29 03:06:20;;;;;;;10.60;5.40;;;12.70;99.90;;;;;;5054195;28;20036;-60
2022/05/29 03:09:06;;;;;;;8.20;6.15;;;12.70;99.90;;;;;;5054496;28;20060;-60
2022/05/29 03:11:35;;;;;;;14.05;6.45;;;12.80;99.90;;;;;;5054490;28;20021;-59
2022/05/29 03:14:21;;;;;;;10.95;7.18;;;12.70;99.90;;;;;;5054276;28;20024;-59
2022/05/29 03:17:25;;;;;;;8.90;6.85;;;12.70;99.90;;;;;;5054308;28;20049;-60
2022/05/29 03:19:59;;;;;;;9.48;7.13;;;12.60;99.90;;;;;;5054292;28;20393;-59
2022/05/29 03:22:55;;;;;;;11.60;7.82;;;12.60;99.90;;;;;;5054247;28;20355;-59
2022/05/29 03:25:22;;;;;;;10.80;8.43;;;12.60;99.90;;;;;;5054309;28;20025;-59
2022/05/29 03:27:50;;;;;;;10.52;8.50;;;12.60;99.90;;;;;;5061337;28;20020;-59
2022/05/29 03:30:25;;;;;;;11.90;8.65;;;12.70;99.90;;;;;;5074047;28;20036;-60
2022/05/29 03:32:57;;;;;;;13.23;8.38;;;12.70;99.90;;;;;;5074307;28;20458;-59
2022/05/29 03:35:29;;;;;;;14.60;9.43;;;12.70;99.90;;;;;;5073938;28;20032;-59
2022/05/29 03:37:56;;;;;;;13.43;8.60;;;12.70;99.90;;;;;;5074123;28;20082;-60
2022/05/29 03:40:25;;;;;;;13.20;9.23;;;12.70;99.90;;;;;;5074118;28;20033;-59
2022/05/29 03:42:51;;;;;;;13.57;9.40;;;12.70;99.90;;;;;;5073876;28;20032;-59
2022/05/29 03:45:17;;;;;;;12.27;9.23;;;12.70;99.90;;;;;;5074000;28;20078;-59
2022/05/29 03:47:43;;;;;;;15.48;9.80;;;12.70;99.90;;;;;;5074178;28;20029;-59
2022/05/29 03:50:13;;;;;;;15.10;10.23;;;12.70;99.90;;;;;;5074057;28;20069;-59
2022/05/29 03:52:39;;;;;;;17.52;10.65;;;12.70;99.90;;;;;;5073909;28;20032;-60
2022/05/29 03:55:07;;;;;;;12.70;10.13;;;12.70;99.90;;;;;;5073845;28;20039;-60
2022/05/29 03:57:33;;;;;;;11.77;9.70;;;12.80;99.90;;;;;;5073819;28;20417;-60
2022/05/29 03:59:59;;;;;;;13.38;9.80;;;12.70;99.90;;;;;;5073916;28;20025;-59
2022/05/29 04:02:25;;;;;;;13.32;9.70;;;12.70;99.90;;;;;;5073796;28;20030;-59
2022/05/29 04:04:52;;;;;;;13.10;9.13;;;12.80;99.90;;;;;;5073684;28;20381;-60
2022/05/29 04:07:18;;;;;;;13.88;9.40;;;12.80;99.90;;;;;;5055939;28;20059;-60
2022/05/29 04:12:29;;;;;;;11.23;9.38;;;12.80;99.90;;;;;;5073659;28;20056;-60
2022/05/29 04:14:55;;;;;;;13.23;9.13;;;12.80;99.90;;;;;;5073901;28;20063;-59
2022/05/29 04:17:21;;;;;;;12.52;9.30;;;12.80;99.90;;;;;;5073615;28;20080;-60
2022/05/29 04:19:47;;;;;;;14.00;10.20;;;12.80;99.90;;;;;;5073644;28;20561;-60
2022/05/29 04:22:16;;;;;;;14.20;10.90;;;12.80;99.90;;;;;;5074208;28;20029;-59
2022/05/29 04:24:42;;;;;;;17.60;10.70;;;12.90;99.90;;;;;;5077468;28;20020;-60
2022/05/29 04:27:10;;;;;;;16.55;11.00;;;13.00;99.90;;;;;;5076990;28;20056;-59
2022/05/29 04:29:36;;;;;;;13.88;11.07;;;13.00;99.90;;;;;;5077232;28;20044;-60
2022/05/29 04:34:47;;;;;;;18.40;11.95;;;13.10;99.90;;;;;;5077032;28;20039;-59
2022/05/29 04:37:13;;;;;;;17.95;13.65;;;13.00;99.90;;;;;;5077326;28;20462;-59
2022/05/29 04:39:39;;;;;;;29.48;20.25;;;12.90;99.90;;;;;;5077043;28;20027;-59
2022/05/29 04:42:06;;;;;;;26.13;18.48;;;12.90;99.90;;;;;;5076857;28;20424;-60
2022/05/29 04:44:32;;;;;;;32.75;20.92;;;13.00;99.90;;;;;;5077057;28;20025;-60
2022/05/29 04:46:59;;;;;;;42.50;25.80;;;13.10;99.90;;;;;;5076829;28;20028;-59
2022/05/29 04:49:25;;;;;;;28.00;16.40;;;13.10;99.90;;;;;;5077003;28;20045;-60
2022/05/29 04:51:51;;;;;;;41.85;27.23;;;13.10;99.90;;;;;;5076759;28;20039;-60
2022/05/29 04:54:17;;;;;;;35.80;17.42;;;13.10;99.90;;;;;;5069368;28;20025;-60
2022/05/29 04:56:46;;;;;;;20.83;15.57;;;13.10;99.90;;;;;;5056798;28;20021;-59
2022/05/29 04:59:12;;;;;;;16.63;11.75;;;13.10;99.90;;;;;;5056769;28;20036;-60
2022/05/29 05:01:38;;;;;;;13.68;10.43;;;13.20;99.90;;;;;;5056437;28;20067;-59
2022/05/29 05:04:04;;;;;;;15.40;10.85;;;13.10;99.90;;;;;;5056593;28;20033;-60
2022/05/29 05:06:30;;;;;;;14.73;11.32;;;13.20;99.90;;;;;;5056557;28;20036;-60
2022/05/29 05:08:56;;;;;;;18.65;11.32;;;13.20;99.90;;;;;;5056356;28;20033;-60
2022/05/29 05:11:22;;;;;;;15.52;11.05;;;13.30;99.90;;;;;;5056531;28;20025;-60
2022/05/29 05:13:48;;;;;;;14.48;9.35;;;13.30;99.90;;;;;;5038638;28;20036;-59
2022/05/29 05:16:14;;;;;;;12.73;9.10;;;13.50;99.90;;;;;;5056062;28;20048;-60
2022/05/29 05:18:40;;;;;;;15.30;9.68;;;13.50;99.90;;;;;;5056318;28;20505;-59
2022/05/29 05:21:07;;;;;;;13.88;9.50;;;13.50;99.90;;;;;;5056265;28;20047;-60
2022/05/29 05:23:34;;;;;;;10.90;9.05;;;13.50;99.90;;;;;;5056021;28;20029;-60
2022/05/29 05:26:00;;;;;;;15.18;8.95;;;13.60;99.90;;;;;;5056256;28;20453;-60
2022/05/29 05:28:27;;;;;;;12.43;8.75;;;13.60;99.90;;;;;;5050829;28;20021;-59
2022/05/29 05:30:53;;;;;;;14.77;9.23;;;13.70;99.90;;;;;;5075718;28;20478;-60
2022/05/29 05:33:19;;;;;;;15.48;8.45;;;13.80;99.90;;;;;;5076205;28;20086;-60
2022/05/29 05:35:45;;;;;;;11.18;8.40;;;13.70;99.90;;;;;;5075678;28;20036;-59
2022/05/29 05:38:12;;;;;;;9.10;6.72;;;13.90;99.90;;;;;;5075760;28;20031;-59
2022/05/29 05:40:38;;;;;;;12.98;7.93;;;13.90;99.90;;;;;;5075846;28;20020;-59
2022/05/29 05:43:05;;;;;;;9.57;7.30;;;13.80;99.90;;;;;;5075817;28;20074;-59
2022/05/29 05:45:31;;;;;;;9.50;7.85;;;13.80;99.90;;;;;;5075704;28;20056;-60
2022/05/29 05:47:57;;;;;;;9.30;8.10;;;13.90;99.90;;;;;;5075890;28;20027;-59
2022/05/29 05:50:22;;;;;;;11.77;9.27;;;13.90;99.90;;;;;;5075511;28;20081;-59
2022/05/29 05:52:48;;;;;;;13.13;9.25;;;14.10;99.90;;;;;;5075424;28;20063;-59
2022/05/29 05:55:14;;;;;;;12.52;9.30;;;14.10;99.90;;;;;;5075493;28;20128;-59
2022/05/29 05:57:40;;;;;;;13.38;10.35;;;14.20;99.90;;;;;;5075484;28;20223;-60
2022/05/29 06:00:11;;;;;;;10.02;8.90;;;14.20;99.90;;;;;;5075282;28;20028;-60
2022/05/29 06:02:40;;;;;;;11.63;9.95;;;14.20;99.90;;;;;;5075532;28;20031;-60
2022/05/29 06:05:07;;;;;;;14.30;10.18;;;14.30;99.90;;;;;;5075165;28;20043;-60
2022/05/29 06:07:33;;;;;;;12.63;10.13;;;14.40;99.90;;;;;;5075339;28;20016;-60
2022/05/29 06:09:59;;;;;;;12.13;9.40;;;14.50;99.90;;;;;;5075369;28;20036;-60
2022/05/29 06:12:25;;;;;;;13.65;8.95;;;14.60;99.90;;;;;;5075053;28;20078;-60
2022/05/29 06:14:53;;;;;;;12.57;9.00;;;14.40;99.90;;;;;;5074872;28;20023;-60
2022/05/29 06:17:19;;;;;;;12.35;9.75;;;14.00;99.90;;;;;;5074851;28;19927;-60
2022/05/29 06:19:45;;;;;;;13.52;10.20;;;14.20;99.90;;;;;;5074883;28;20097;-60
2022/05/29 06:22:11;;;;;;;14.60;9.35;;;14.50;99.90;;;;;;5074903;28;20024;-60
2022/05/29 06:24:37;;;;;;;16.02;8.27;;;14.50;99.90;;;;;;5075224;28;20461;-60
2022/05/29 06:27:04;;;;;;;11.38;8.73;;;14.70;99.90;;;;;;5074675;28;20028;-60
2022/05/29 06:29:30;;;;;;;12.65;9.25;;;14.70;99.90;;;;;;5074959;28;20040;-60
2022/05/29 06:32:04;;;;;;;12.00;8.15;;;14.80;99.90;;;;;;5075022;28;20028;-60
2022/05/29 06:34:32;;;;;;;11.18;8.18;;;14.90;99.90;;;;;;5074818;28;20166;-60
2022/05/29 06:36:58;;;;;;;9.70;8.20;;;14.90;99.90;;;;;;5074819;28;20098;-60
2022/05/29 06:39:24;;;;;;;9.52;7.60;;;15.10;99.90;;;;;;5074905;28;20466;-60
2022/05/29 06:41:51;;;;;;;9.02;7.82;;;15.00;99.90;;;;;;5074494;28;20144;-59
2022/05/29 06:44:22;;;;;;;10.10;7.88;;;15.20;99.90;;;;;;5074521;28;20150;-60
2022/05/29 06:46:48;;;;;;;12.70;7.72;;;15.30;99.90;;;;;;5074277;28;20115;-60
2022/05/29 06:49:14;;;;;;;10.63;8.02;;;15.40;99.90;;;;;;5074664;28;20028;-60
2022/05/29 06:51:40;;;;;;;10.90;7.15;;;15.50;99.90;;;;;;5074840;28;20460;-60
2022/05/29 06:54:06;;;;;;;11.98;8.07;;;15.30;99.90;;;;;;5068908;28;20037;-60
2022/05/29 06:56:32;;;;;;;13.15;6.60;;;15.10;99.90;;;;;;5054293;28;20021;-60
2022/05/29 06:58:59;;;;;;;10.05;6.60;;;15.00;99.90;;;;;;5054807;28;20035;-60
2022/05/29 07:07:02;;;;;;;10.35;7.05;;;15.40;99.90;;;;;;5054461;28;20029;-59
2022/05/29 07:09:32;;;;;;;12.32;7.60;;;15.50;99.90;;;;;;5054262;28;20035;-59
2022/05/29 07:12:08;;;;;;;8.98;6.68;;;15.60;99.90;;;;;;5054562;28;20059;-60
2022/05/29 07:14:40;;;;;;;13.48;6.03;;;15.60;99.90;;;;;;5054505;28;20029;-60
2022/05/29 07:17:06;;;;;;;8.68;5.35;;;15.70;99.90;;;;;;5053737;28;20470;-59
2022/05/29 07:19:34;;;;;;;6.47;5.78;;;15.90;99.90;;;;;;5054526;28;20485;-60
2022/05/29 07:22:00;;;;;;;9.43;5.25;;;16.00;99.90;;;;;;5054223;28;20021;-60
2022/05/29 07:24:28;;;;;;;12.07;5.25;;;15.90;99.90;;;;;;5053960;28;20040;-59
2022/05/29 07:26:55;;;;;;;9.68;5.20;;;15.90;99.90;;;;;;5054217;28;20178;-60
2022/05/29 07:29:22;;;;;;;9.00;4.95;;;15.70;99.90;;;;;;5054107;28;20029;-60
2022/05/29 07:31:49;;;;;;;8.02;4.95;;;15.70;99.90;;;;;;5053869;28;20022;-59
2022/05/29 07:34:15;;;;;;;7.57;5.38;;;15.70;99.90;;;;;;5036462;28;20033;-60
2022/05/29 07:36:41;;;;;;;6.65;5.32;;;15.90;99.90;;;;;;5053963;28;20029;-59
2022/05/29 07:39:09;;;;;;;7.00;5.47;;;16.10;99.90;;;;;;5054044;28;20037;-59
2022/05/29 07:44:19;;;;;;;7.97;5.13;;;16.00;99.90;;;;;;5053967;28;20032;-59
2022/05/29 07:46:46;;;;;;;5.65;4.35;;;16.30;99.90;;;;;;5053897;28;20493;-59
2022/05/29 07:49:12;;;;;;;12.30;4.97;;;16.20;99.90;;;;;;5036221;28;20032;-59
2022/05/29 07:51:39;;;;;;;7.35;4.35;;;16.20;99.90;;;;;;5053979;28;20107;-60
2022/05/29 07:54:05;;;;;;;5.78;4.10;;;16.40;99.90;;;;;;5058904;28;20458;-60
2022/05/29 07:56:31;;;;;;;7.85;4.40;;;16.70;99.90;;;;;;5073989;28;20119;-60
2022/05/29 07:58:57;;;;;;;9.93;4.03;;;16.70;99.90;;;;;;5076594;28;20413;-60
2022/05/29 08:01:23;;;;;;;8.20;4.15;;;16.60;99.90;;;;;;5077696;28;20017;-59
2022/05/29 08:03:49;;;;;;;6.68;4.55;;;16.90;99.90;;;;;;5077804;28;20095;-60
2022/05/29 08:06:15;;;;;;;9.13;4.38;;;17.00;99.90;;;;;;5077609;28;20045;-60
2022/05/29 08:08:41;;;;;;;7.47;4.05;;;17.10;99.90;;;;;;5077632;28;20036;-60
2022/05/29 08:11:08;;;;;;;6.07;3.35;;;17.00;99.90;;;;;;5077639;28;20073;-59
2022/05/29 08:13:35;;;;;;;7.15;2.85;;;16.90;99.90;;;;;;5077474;28;20047;-60
2022/05/29 08:16:02;;;;;;;10.05;3.20;;;17.30;99.90;;;;;;5077313;28;20051;-60
2022/05/29 08:18:28;;;;;;;4.60;2.08;;;17.40;99.90;;;;;;5077471;28;20020;-59
2022/05/29 08:20:55;;;;;;;8.02;2.90;;;17.30;99.90;;;;;;5077348;28;20484;-60
2022/05/29 08:23:22;;;;;;;6.65;2.65;;;17.60;99.90;;;;;;5077339;28;20090;-59
2022/05/29 08:31:13;;;;;;;8.43;2.30;;;18.00;99.90;;;;;;5077313;28;20029;-60
2022/05/29 08:33:39;;;;;;;7.35;2.90;;;17.70;98.80;;;;;;5077259;28;20035;-59
2022/05/29 08:36:16;;;;;;;4.03;2.60;;;17.80;96.70;;;;;;5077009;28;20575;-60
2022/05/29 08:38:46;;;;;;;9.35;2.72;;;17.70;97.50;;;;;;5077429;28;20021;-60
2022/05/29 08:41:16;;;;;;;12.23;2.65;;;18.00;99.30;;;;;;5077014;28;20036;-59
2022/05/29 08:44:03;;;;;;;3.77;2.47;;;18.50;99.90;;;;;;5076924;28;20477;-60
2022/05/29 08:46:44;;;;;;;5.55;2.40;;;18.40;96.30;;;;;;5076432;28;20064;-59
2022/05/29 08:49:17;;;;;;;2.95;2.50;;;18.40;93.80;;;;;;5076790;28;20040;-59
2022/05/29 08:52:02;;;;;;;4.03;2.13;;;18.10;92.30;;;;;;5076823;28;20029;-61
2022/05/29 08:54:53;;;;;;;4.57;2.20;;;18.20;90.60;;;;;;5068377;28;20109;-60
2022/05/29 08:57:31;;;;;;;10.70;5.18;;;18.40;92.80;;;;;;5056411;28;20037;-59
2022/05/29 09:00:04;;;;;;;8.10;3.08;;;18.50;90.40;;;;;;5056726;28;20471;-60
2022/05/29 09:03:04;;;;;;;4.68;2.50;;;18.60;97.40;;;;;;5056515;28;20489;-60
2022/05/29 09:06:09;;;;;;;4.57;2.70;;;19.30;91.30;;;;;;5056459;28;20326;-60
2022/05/29 09:08:39;;;;;;;6.45;2.90;;;18.80;80.70;;;;;;4974967;28;20038;-60
2022/05/29 09:11:31;;;;;;;3.80;2.50;;;19.30;81.30;;;;;;4975085;28;20556;-60
2022/05/29 09:14:08;;;;;;;7.97;2.85;;;18.90;91.00;;;;;;4971097;28;20045;-60
2022/05/29 09:16:44;;;;;;;8.43;2.85;;;19.90;90.70;;;;;;4974883;28;20055;-60
2022/05/29 09:19:25;;;;;;;6.85;2.83;;;20.80;80.40;;;;;;4975026;28;20058;-60
2022/05/29 09:22:10;;;;;;;3.88;2.55;;;20.70;69.60;;;;;;4975210;28;20427;-60
2022/05/29 09:24:43;;;;;;;5.57;3.20;;;20.80;72.30;;;;;;4974964;28;20038;-60
2022/05/29 09:27:11;;;;;;;4.63;2.80;;;21.10;74.90;;;;;;4976589;28;20496;-60
2022/05/29 09:29:37;;;;;;;5.07;2.53;;;20.60;70.10;;;;;;4994391;28;20030;-60
2022/05/29 09:32:15;;;;;;;5.50;2.67;;;20.50;68.30;;;;;;4994151;28;20042;-60
2022/05/29 09:34:47;;;;;;;4.82;2.60;;;21.70;88.90;;;;;;4994253;28;20034;-60
2022/05/29 09:37:40;;;;;;;6.63;2.53;;;22.00;65.90;;;;;;4994427;28;20373;-60
2022/05/29 09:40:29;;;;;;;5.75;3.00;;;22.50;70.80;;;;;;5060742;28;20040;-60
2022/05/29 09:42:55;;;;;;;3.35;2.30;;;23.00;56.50;;;;;;5076276;28;20052;-60
2022/05/29 09:45:22;;;;;;;6.43;2.75;;;23.00;58.90;;;;;;5075680;28;20037;-60
2022/05/29 09:50:55;;;;;;;5.38;2.63;;;21.80;59.90;;;;;;5075764;28;20039;-60
2022/05/29 09:53:24;;;;;;;6.82;2.60;;;22.30;60.30;;;;;;5075358;28;20056;-60
2022/05/29 09:55:58;;;;;;;5.23;2.70;;;22.50;57.10;;;;;;5075415;28;20039;-60
2022/05/29 09:58:49;;;;;;;4.30;2.40;;;21.70;57.80;;;;;;5075576;28;20288;-60
2022/05/29 10:01:32;;;;;;;7.35;3.03;;;21.90;59.80;;;;;;5075523;28;20081;-60
2022/05/29 10:04:02;;;;;;;6.35;2.42;;;22.10;63.80;;;;;;5075408;28;20033;-60
2022/05/29 10:06:42;;;;;;;4.47;2.58;;;22.00;57.00;;;;;;5075278;28;20085;-60
2022/05/29 10:09:15;;;;;;;6.18;2.55;;;22.50;65.50;;;;;;5075154;28;20428;-60
2022/05/29 10:11:43;;;;;;;5.88;2.40;;;22.30;56.40;;;;;;5075373;28;20029;-59
2022/05/29 10:14:33;;;;;;;3.22;2.20;;;21.60;59.50;;;;;;5075064;28;20071;-60
2022/05/29 10:16:59;;;;;;;4.17;2.33;;;21.30;61.10;;;;;;5074880;28;20055;-60
2022/05/29 10:19:51;;;;;;;5.63;2.40;;;22.20;63.50;;;;;;5075090;28;20261;-60
2022/05/29 10:22:30;;;;;;;6.90;2.35;;;22.50;60.70;;;;;;5069934;28;20064;-60
2022/05/29 10:24:57;;;;;;;5.35;2.35;;;22.60;65.30;;;;;;5075125;28;20509;-60
2022/05/29 10:27:23;;;;;;;5.97;3.05;;;22.60;59.30;;;;;;5074917;28;20031;-59
2022/05/29 10:30:18;;;;;;;8.02;2.70;;;22.60;58.80;;;;;;5074796;28;20040;-59
2022/05/29 10:32:59;;;;;;;6.55;2.40;;;22.50;59.80;;;;;;5053595;28;20477;-59
2022/05/29 10:35:32;;;;;;;5.13;2.50;;;22.30;58.00;;;;;;5074650;28;20089;-59
2022/05/29 10:38:17;;;;;;;5.88;2.58;;;22.30;62.10;;;;;;5074686;28;20389;-59
2022/05/29 10:40:47;;;;;;;8.15;3.60;;;22.10;60.80;;;;;;5074941;28;20051;-59
2022/05/29 10:43:46;;;;;;;5.03;2.88;;;21.40;59.60;;;;;;5074667;28;20028;-59
2022/05/29 10:46:18;;;;;;;5.90;3.20;;;21.00;65.30;;;;;;5074716;28;20393;-59
2022/05/29 10:49:21;;;;;;;6.68;3.30;;;21.50;68.80;;;;;;5074817;28;20462;-59
2022/05/29 10:51:47;;;;;;;7.20;3.33;;;21.30;60.50;;;;;;5074503;28;20033;-59
2022/05/29 10:54:24;;;;;;;6.47;3.70;;;21.10;72.70;;;;;;5068219;28;20106;-59
2022/05/29 10:57:27;;;;;;;6.28;4.00;;;21.30;68.00;;;;;;5054327;28;20033;-59
2022/05/29 11:00:19;;;;;;;8.50;3.72;;;21.20;64.90;;;;;;5054350;28;20040;-59
2022/05/29 11:06:09;;;;;;;6.18;5.40;;;20.50;81.50;;;;;;5054203;28;20065;-60
2022/05/29 11:08:47;;;;;;;10.82;6.13;;;20.80;73.00;;;;;;5054504;28;20644;-59
2022/05/29 11:11:32;;;;;;;12.02;5.35;;;20.90;76.60;;;;;;5054333;28;20021;-59
2022/05/29 11:14:15;;;;;;;7.38;5.38;;;20.60;72.90;;;;;;5054698;28;20403;-59
2022/05/29 11:17:09;;;;;;;7.20;4.38;;;20.50;71.20;;;;;;5054162;28;20132;-59
2022/05/29 11:19:53;;;;;;;7.45;4.90;;;20.20;72.50;;;;;;5054139;28;20074;-59
2022/05/29 11:22:22;;;;;;;6.03;5.00;;;20.20;85.60;;;;;;5054331;28;20033;-59
2022/05/29 11:25:17;;;;;;;6.95;4.63;;;20.10;82.10;;;;;;5054178;28;20406;-58
2022/05/29 11:27:49;;;;;;;8.27;4.57;;;20.10;79.70;;;;;;5042792;28;20086;-59
2022/05/29 11:30:41;;;;;;;8.05;4.38;;;20.00;80.40;;;;;;5074145;28;20024;-59
2022/05/29 11:33:10;;;;;;;7.13;4.30;;;19.90;80.10;;;;;;5077393;28;20033;-59
2022/05/29 11:36:06;;;;;;;8.05;4.57;;;19.80;83.00;;;;;;5078180;28;20125;-59
2022/05/29 11:39:02;;;;;;;7.50;4.70;;;19.50;85.00;;;;;;5060504;28;20035;-58
2022/05/29 11:41:47;;;;;;;6.45;4.63;;;19.50;83.60;;;;;;5077965;28;20016;-59
2022/05/29 11:44:19;;;;;;;6.18;4.03;;;19.70;85.20;;;;;;5078393;28;20027;-59
2022/05/29 11:52:51;;;;;;;10.20;6.97;;;20.00;72.70;;;;;;5078080;28;20050;-58
2022/05/29 11:55:23;;;;;;;10.85;7.05;;;19.70;76.10;;;;;;5077634;28;20086;-58
2022/05/29 11:58:07;;;;;;;8.00;6.20;;;20.00;75.50;;;;;;5078007;28;20052;-59
2022/05/29 12:00:57;;;;;;;11.60;6.95;;;20.40;80.70;;;;;;5077780;28;20020;-59
2022/05/29 12:03:38;;;;;;;10.15;7.00;;;20.80;68.60;;;;;;5077693;28;20101;-59
2022/05/29 12:06:30;;;;;;;11.30;6.80;;;21.00;69.80;;;;;;5077569;28;20025;-59
2022/05/29 12:08:59;;;;;;;12.38;6.90;;;20.90;69.40;;;;;;5066450;28;20420;-59
2022/05/29 12:11:30;;;;;;;12.50;7.57;;;20.70;66.50;;;;;;5077794;28;20074;-59
2022/05/29 12:14:31;;;;;;;10.52;7.85;;;21.00;73.10;;;;;;5077637;28;20032;-59
2022/05/29 12:17:05;;;;;;;10.20;7.93;;;20.60;67.60;;;;;;5055204;28;20146;-59
2022/05/29 12:19:39;;;;;;;11.98;7.85;;;20.40;73.70;;;;;;5077727;28;20036;-59
2022/05/29 12:22:08;;;;;;;8.95;7.43;;;20.70;67.10;;;;;;5077255;28;20082;-59
2022/05/29 12:24:47;;;;;;;14.18;8.60;;;20.70;67.80;;;;;;5077515;28;20072;-59
2022/05/29 12:27:16;;;;;;;9.70;7.18;;;20.90;64.40;;;;;;5059369;28;20033;-59
2022/05/29 12:29:50;;;;;;;9.10;7.10;;;20.40;66.80;;;;;;5077171;28;20025;-59
2022/05/29 12:32:21;;;;;;;11.32;7.88;;;20.60;66.20;;;;;;5077506;28;20035;-59
2022/05/29 12:34:55;;;;;;;8.35;7.25;;;20.00;76.50;;;;;;5077189;28;20097;-59
2022/05/29 12:37:39;;;;;;;11.80;9.30;;;20.20;69.60;;;;;;5076901;28;20127;-59
2022/05/29 12:40:39;;;;;;;14.57;9.23;;;20.00;75.70;;;;;;5077072;28;20037;-59
2022/05/29 12:43:58;;;;;;;8.38;7.57;;;20.10;67.70;;;;;;5076622;28;20037;-59
2022/05/29 12:46:36;;;;;;;8.32;7.40;;;19.60;69.60;;;;;;4975757;28;20033;-58
2022/05/29 12:49:39;;;;;;;14.02;9.25;;;19.30;75.50;;;;;;5076830;28;20068;-59
2022/05/29 12:52:14;;;;;;;12.05;8.20;;;19.50;78.00;;;;;;5076973;28;20116;-59
2022/05/29 12:55:13;;;;;;;10.95;8.90;;;20.00;78.00;;;;;;5066591;28;20024;-59
2022/05/29 12:57:54;;;;;;;12.65;10.23;;;20.10;72.60;;;;;;5056623;28;20433;-59
2022/05/29 13:00:38;;;;;;;10.35;9.13;;;20.60;78.70;;;;;;5056830;28;20047;-59
2022/05/29 13:03:22;;;;;;;15.60;10.07;;;20.90;66.20;;;;;;5056674;28;20473;-59
2022/05/29 13:06:18;;;;;;;11.10;9.60;;;20.90;68.30;;;;;;5056202;28;20024;-59
2022/05/29 13:09:19;;;;;;;14.35;10.13;;;20.60;67.10;;;;;;5056718;28;20425;-59
2022/05/29 13:11:58;;;;;;;11.00;9.73;;;20.30;68.20;;;;;;5056479;28;20044;-59
2022/05/29 13:14:25;;;;;;;11.15;9.32;;;20.00;65.70;;;;;;5056301;28;20028;-59
2022/05/29 13:17:04;;;;;;;12.95;10.07;;;19.70;74.20;;;;;;5056167;28;20116;-59
2022/05/29 13:20:02;;;;;;;14.57;11.32;;;20.00;72.60;;;;;;5056317;28;20470;-58
2022/05/29 13:22:47;;;;;;;10.50;9.40;;;20.00;74.00;;;;;;5047446;28;20044;-58
2022/05/29 13:25:15;;;;;;;17.02;9.98;;;20.20;80.90;;;;;;5056365;28;20063;-59
2022/05/29 13:27:42;;;;;;;12.63;9.40;;;20.30;75.30;;;;;;5062291;28;20476;-59
2022/05/29 13:30:29;;;;;;;14.45;12.15;;;19.80;69.10;;;;;;5076036;28;20052;-58
2022/05/29 13:33:24;;;;;;;11.65;9.07;;;19.80;71.00;;;;;;5075973;28;20035;-59
2022/05/29 13:35:51;;;;;;;10.98;9.35;;;20.20;68.30;;;;;;5031016;28;20405;-59
2022/05/29 13:38:44;;;;;;;10.50;8.77;;;20.50;71.20;;;;;;5076184;28;20050;-58
2022/05/29 13:41:32;;;;;;;10.95;9.55;;;20.80;73.90;;;;;;5075654;28;20475;-58
2022/05/29 13:44:28;;;;;;;14.18;9.02;;;20.90;65.90;;;;;;5075930;28;20078;-58
2022/05/29 13:47:19;;;;;;;16.08;9.85;;;21.20;61.30;;;;;;5075951;28;20028;-59
2022/05/29 13:49:48;;;;;;;11.27;9.15;;;21.40;69.20;;;;;;5075633;28;20381;-58